Latest Weather Observations for Sydney Airport

IDN60801

Issued at 10:05 am EDT Friday 31 October 2014 (issued every 30 minutes, with the page automatically refreshed every 10 minutes)

About weather observations | Map of weather stations | Latest weather observations for NSW | Other Formats
Station Details ID: 066037 Name: SYDNEY AIRPORT AMO Lat: -33.95 Lon: 151.17 Height: 6.0 m
Data from the previous 72 hours. | See also: Recent months at Sydney Airport
Date/Time
EDT
Temp
°C
App
Temp
°C
Dew
Point
Rel
Hum
%
Delta-T
°C
Wind Press
QNH
hPa
Press
MSL
hPa
Rain
since 9 am
mm
Dir
 
Spd
km/h
Gust
km/h
Spd
kts
Gust
kts
31/10:00am 26.7 25.3 11.0 37 8.9 NW 9 15 5 8 1013.1 1013.1 0.0
31/09:30am 24.6 23.4 11.5 44 7.4 WNW 9 15 5 8 1013.3 1013.3 0.0
31/09:00am 22.2 21.5 13.3 57 5.1 W 9 13 5 7 1013.3 1013.3 0.0
31/08:30am 21.6 21.0 13.4 59 4.7 W 9 15 5 8 1013.2 1013.2 0.0
31/08:00am 20.6 19.3 12.6 60 4.5 NW 11 15 6 8 1013.1 1013.1 0.0
31/07:30am 19.5 17.7 10.9 57 4.7 NW 11 15 6 8 1013.1 1013.1 0.0
31/07:00am 18.4 16.8 11.7 65 3.7 NW 11 13 6 7 1013.0 1013.0 0.0
31/06:30am 17.8 17.1 13.2 74 2.6 NW 9 11 5 6 1012.9 1012.9 0.0
31/06:00am 17.4 17.4 14.3 82 1.8 WNW 7 9 4 5 1012.8 1012.8 0.0
31/05:30am 17.0 17.0 14.2 83 1.6 W 7 9 4 5 1012.8 1012.8 0.0
31/05:00am 17.4 17.3 13.9 80 2.0 S 7 9 4 5 1012.6 1012.6 0.0
31/04:30am 17.2 17.0 14.6 85 1.5 SSW 9 9 5 5 1012.5 1012.5 0.0
31/04:00am 17.8 17.8 15.2 85 1.5 S 9 11 5 6 1012.5 1012.5 0.0
31/03:30am 17.5 17.5 15.3 87 1.3 S 9 9 5 5 1012.4 1012.4 0.0
31/03:00am 17.8 17.4 15.1 84 1.6 S 11 13 6 7 1012.4 1012.4 0.0
31/02:30am 18.7 18.2 16.0 84 1.6 S 13 15 7 8 1012.7 1012.7 0.0
31/02:00am 18.6 18.3 14.3 76 2.5 SW 9 9 5 5 1012.7 1012.7 0.0
31/01:30am 18.9 18.9 14.2 74 2.7 S 7 9 4 5 1013.0 1013.0 0.0
31/01:00am 19.2 19.8 11.8 62 4.1 CALM 0 0 0 0 1013.3 1013.3 0.0
31/12:30am 19.3 19.4 12.7 65 3.7 N 4 6 2 3 1013.4 1013.4 0.0
31/12:00am 20.2 19.7 12.6 61 4.3 NNE 7 9 4 5 1013.4 1013.4 0.0
 
Date/Time
EDT
Temp
°C
App
Temp
°C
Dew
Point
Rel
Hum
%
Delta-T
°C
Wind Press
QNH
hPa
Press
MSL
hPa
Rain
since 9 am
mm
Dir
 
Spd
km/h
Gust
km/h
Spd
kts
Gust
kts
30/11:30pm 20.3 18.5 12.1 59 4.6 NE 13 13 7 7 1013.4 1013.4 0.0
30/11:00pm 21.7 20.4 11.2 51 5.8 ENE 9 11 5 6 1013.5 1013.5 0.0
30/10:30pm 21.4 19.5 10.6 50 5.9 ENE 11 13 6 7 1013.6 1013.6 0.0
30/10:00pm 22.4 20.7 9.9 45 6.8 NE 9 13 5 7 1013.4 1013.4 0.0
30/09:30pm 23.6 20.1 8.9 39 7.9 NNE 17 20 9 11 1013.2 1013.2 0.0
30/09:00pm 23.7 19.3 8.8 38 8.0 NNE 22 30 12 16 1013.0 1013.0 0.0
30/08:30pm 23.4 18.5 10.1 43 7.3 NNE 26 33 14 18 1012.8 1012.8 0.0
30/08:00pm 22.6 20.7 11.7 50 6.1 NNE 13 17 7 9 1012.5 1012.5 0.0
30/07:30pm 22.8 20.2 12.0 50 6.1 NNE 17 19 9 10 1012.2 1012.2 0.0
30/07:00pm 24.3 20.9 10.4 41 7.7 NE 19 24 10 13 1011.5 1011.5 0.0
30/06:30pm 25.5 20.2 9.7 37 8.7 NE 28 35 15 19 1011.0 1011.0 0.0
30/06:00pm 26.1 20.0 8.3 32 9.6 NE 30 37 16 20 1010.6 1010.6 0.0
30/05:30pm 27.0 21.1 8.9 32 9.9 NE 30 35 16 19 1010.4 1010.4 0.0
30/05:00pm 27.5 22.0 7.5 28 10.7 NE 26 32 14 17 1010.3 1010.3 0.0
30/04:30pm 29.0 23.6 8.1 27 11.4 NE 26 37 14 20 1010.2 1010.2 0.0
30/04:00pm 31.3 25.5 2.1 15 14.6 ENE 22 30 12 16 1010.4 1010.4 0.0
30/03:30pm 31.3 25.8 0.4 14 15.0 E 19 22 10 12 1010.9 1010.9 0.0
30/03:00pm 30.1 24.9 2.4 17 13.8 W 19 30 10 16 1011.3 1011.3 0.0
30/02:30pm 30.1 24.9 3.5 18 13.5 WNW 20 30 11 16 1011.8 1011.8 0.0
30/02:00pm 30.9 25.5 1.5 15 14.5 WNW 19 28 10 15 1012.2 1012.2 0.0
30/01:30pm 30.2 24.0 2.2 16 13.9 WNW 24 32 13 17 1012.4 1012.4 0.0
30/01:00pm 30.3 25.0 3.2 18 13.7 WNW 20 30 11 16 1012.8 1012.8 0.0
30/12:30pm 28.6 23.6 4.6 21 12.3 NNW 20 28 11 15 1013.1 1013.1 0.0
30/12:00pm 28.7 23.4 5.1 22 12.2 WSW 22 32 12 17 1013.6 1013.6 0.0
30/11:30am 27.5 24.5 6.0 25 11.2 SSW 11 17 6 9 1014.2 1014.2 0.0
30/11:00am 24.9 23.8 10.5 40 8.0 WNW 7 13 4 7 1014.5 1014.5 0.0
30/10:30am 25.0 23.7 12.5 45 7.2 NW 11 15 6 8 1014.8 1014.8 0.0
30/10:00am 24.3 22.9 13.3 50 6.4 NW 13 20 7 11 1015.2 1015.2 0.0
30/09:30am 23.2 21.9 13.6 54 5.6 NW 13 17 7 9 1015.3 1015.3 0.0
30/09:00am 21.2 19.9 13.7 62 4.3 WNW 13 17 7 9 1015.5 1015.5 0.0
30/08:30am 19.9 18.6 13.6 67 3.6 NW 13 17 7 9 1015.6 1015.6 0.0
30/08:00am 18.8 16.7 13.7 72 2.9 WNW 17 24 9 13 1015.5 1015.5 0.0
30/07:30am 18.9 18.0 13.8 72 2.9 WNW 11 17 6 9 1015.4 1015.4 0.0
30/07:00am 18.3 16.9 13.5 73 2.7 NW 13 17 7 9 1015.1 1015.1 0.0
30/06:30am 18.2 17.6 13.6 74 2.6 NNW 9 11 5 6 1015.0 1015.0 0.0
30/06:00am 17.5 17.2 13.4 77 2.3 NNW 7 9 4 5 1014.8 1014.8 0.0
30/05:30am 16.9 16.7 13.7 81 1.8 WNW 7 7 4 4 1014.7 1014.7 0.0
30/05:00am 16.7 16.5 13.7 82 1.7 NNW 7 7 4 4 1014.6 1014.6 0.0
30/04:30am 16.8 16.6 13.6 81 1.8 NNW 7 7 4 4 1014.7 1014.7 0.0
30/04:00am 17.0 16.8 13.6 80 1.9 NNW 7 7 4 4 1014.9 1014.9 0.0
30/03:30am 17.2 16.7 13.9 81 1.9 NW 9 11 5 6 1015.1 1015.1 0.0
30/03:00am 17.1 16.3 13.9 81 1.8 WNW 11 13 6 7 1015.4 1015.4 0.0
30/02:30am 18.0 17.1 13.8 76 2.4 NW 11 13 6 7 1015.5 1015.5 0.0
30/02:00am 18.3 16.7 13.9 75 2.5 N 15 19 8 10 1015.7 1015.7 0.0
30/01:30am 19.2 17.6 14.0 72 3.0 N 15 19 8 10 1016.0 1016.0 0.0
30/01:00am 19.2 17.6 13.8 71 3.1 N 15 19 8 10 1016.2 1016.2 0.0
30/12:30am 19.3 17.2 13.7 70 3.2 NNE 17 20 9 11 1016.6 1016.6 0.0
30/12:00am 19.2 16.9 14.0 72 3.0 N 19 26 10 14 1016.9 1016.9 0.0
 
Date/Time
EDT
Temp
°C
App
Temp
°C
Dew
Point
Rel
Hum
%
Delta-T
°C
Wind Press
QNH
hPa
Press
MSL
hPa
Rain
since 9 am
mm
Dir
 
Spd
km/h
Gust
km/h
Spd
kts
Gust
kts
29/11:30pm 19.9 17.4 14.2 69 3.3 NNE 20 28 11 15 1016.9 1016.9 0.0
29/11:00pm 19.8 17.4 14.5 71 3.1 NNE 20 26 11 14 1017.0 1017.0 0.0
29/10:30pm 19.8 17.4 14.3 70 3.2 NNE 20 26 11 14 1016.9 1016.9 0.0
29/10:00pm 20.1 17.8 14.0 68 3.5 NNE 19 26 10 14 1017.0 1017.0 0.0
29/09:30pm 20.0 17.5 14.1 69 3.4 NNE 20 30 11 16 1017.0 1017.0 0.0
29/09:00pm 20.2 17.9 14.0 67 3.6 NNE 19 26 10 14 1017.0 1017.0 0.0
29/08:30pm 20.6 17.6 13.6 64 4.0 NE 22 28 12 15 1016.7 1016.7 0.0
29/08:00pm 20.6 17.9 13.6 64 4.0 NE 20 26 11 14 1016.5 1016.5 0.0
29/07:30pm 19.5 16.4 13.5 68 3.4 NE 22 33 12 18 1016.2 1016.2 0.0
29/07:00pm 20.0 16.2 13.5 66 3.7 ENE 26 32 14 17 1015.9 1015.9 0.0
29/06:30pm 19.7 16.3 13.8 69 3.4 ENE 24 33 13 18 1015.6 1015.6 0.0
29/06:00pm 19.9 15.7 13.4 66 3.7 ENE 28 35 15 19 1015.1 1015.1 0.0
29/05:30pm 20.1 15.2 13.6 66 3.7 ENE 32 46 17 25 1015.1 1015.1 0.0
29/05:00pm 21.0 16.3 13.1 60 4.5 ENE 30 39 16 21 1015.1 1015.1 0.0
29/04:30pm 20.7 16.2 13.8 64 4.0 E 30 39 16 21 1015.2 1015.2 0.0
29/04:00pm 20.8 15.7 13.1 61 4.4 E 32 41 17 22 1015.4 1015.4 0.0
29/03:30pm 21.8 16.7 13.1 57 5.0 E 32 39 17 21 1015.4 1015.4 0.0
29/03:00pm 22.3 18.2 13.7 58 5.0 E 28 35 15 19 1015.7 1015.7 0.0
29/02:30pm 21.9 17.2 13.2 57 5.0 E 30 35 16 19 1016.0 1016.0 0.0
29/02:00pm 21.8 17.1 13.3 58 4.9 E 30 37 16 20 1016.3 1016.3 0.0
29/01:30pm 22.2 18.0 12.3 53 5.6 E 26 33 14 18 1016.5 1016.5 0.0
29/01:00pm 23.0 20.0 12.7 52 5.9 E 20 30 11 16 1016.6 1016.6 0.0
29/12:30pm 22.0 18.6 12.5 54 5.4 SE 22 28 12 15 1016.8 1016.8 0.0
29/12:00pm 22.5 17.7 8.8 41 7.3 ESE 24 32 13 17 1017.2 1017.2 0.0
29/11:00am 21.5 18.3 9.8 47 6.3 S 17 20 9 11 1017.7 1017.7 0.0
29/10:30am 20.7 16.8 9.4 48 6.0 S 20 26 11 14 1017.7 1017.7 0.0
29/10:00am 20.5 17.1 11.2 55 5.1 S 20 24 11 13 1017.6 1017.6 0.0
29/09:30am 20.3 16.5 11.2 56 5.0 S 22 30 12 16 1017.5 1017.5 0.0
29/09:00am 20.6 17.6 7.5 42 6.7 SSW 13 17 7 9 1017.3 1017.3 0.0
29/08:30am 20.0 16.6 7.7 45 6.3 WSW 15 19 8 10 1017.1 1017.1 0.0
29/08:00am 19.5 15.9 6.8 43 6.4 W 15 17 8 9 1016.9 1016.9 0.0
29/07:30am 18.7 15.9 6.9 46 5.9 WSW 11 15 6 8 1016.6 1016.6 0.0
29/07:00am 18.1 16.4 7.6 50 5.3 S 6 9 3 5 1016.3 1016.3 0.0
29/06:30am 17.0 14.4 7.7 54 4.7 SSW 11 17 6 9 1015.9 1015.9 0.0
29/06:00am 16.8 14.4 6.9 52 4.9 SSW 9 11 5 6 1015.5 1015.5 0.0
29/05:30am 16.3 13.3 6.0 50 5.0 WSW 11 13 6 7 1015.1 1015.1 0.0
29/05:00am 16.9 14.6 5.5 47 5.5 W 7 9 4 5 1014.8 1014.8 0.0
29/04:30am 17.3 14.6 5.5 45 5.7 W 9 17 5 9 1014.5 1014.5 0.0
29/04:00am 17.7 14.9 5.2 43 6.0 W 9 13 5 7 1014.2 1014.2 0.0
29/03:30am 18.0 14.8 5.1 42 6.2 W 11 15 6 8 1014.0 1014.0 0.0
29/03:00am 18.1 14.9 5.0 42 6.3 W 11 15 6 8 1013.9 1013.9 0.0
29/02:30am 18.4 14.0 4.9 41 6.5 W 17 19 9 10 1013.8 1013.8 0.0
29/02:00am 19.0 14.3 5.2 40 6.7 WSW 19 28 10 15 1013.6 1013.6 0.0
29/01:30am 19.5 14.7 4.8 38 7.1 WSW 19 22 10 12 1013.5 1013.5 0.0
29/01:00am 20.1 15.9 5.8 39 7.1 SW 17 20 9 11 1013.7 1013.7 0.0
29/12:30am 20.4 13.2 5.1 36 7.5 SW 32 39 17 21 1013.7 1013.7 0.0
29/12:00am 20.3 15.6 3.4 32 8.0 SW 17 22 9 12 1013.7 1013.7 0.0
 
Date/Time
EDT
Temp
°C
App
Temp
°C
Dew
Point
Rel
Hum
%
Delta-T
°C
Wind Press
QNH
hPa
Press
MSL
hPa
Rain
since 9 am
mm
Dir
 
Spd
km/h
Gust
km/h
Spd
kts
Gust
kts
28/11:30pm 20.3 16.8 7.4 43 6.6 SW 15 17 8 9 1013.4 1013.4 0.0
28/11:00pm 20.4 16.1 5.4 37 7.4 WSW 17 17 9 9 1013.1 1013.1 0.0
28/10:30pm 21.0 15.8 2.4 29 8.7 SW 19 20 10 11 1012.9 1012.9 0.0
28/10:00pm 21.1 17.2 3.5 31 8.4 WSW 13 17 7 9 1012.7 1012.7 0.0
28/09:30pm 22.2 16.6 1.5 25 9.6 WSW 20 26 11 14 1012.4 1012.4 0.0
28/09:00pm 22.4 17.2 2.2 26 9.5 WSW 19 26 10 14 1012.0 1012.0 0.0
28/08:30pm 23.4 18.3 0.9 22 10.4 W 17 24 9 13 1011.4 1011.4 0.0
28/08:00pm 24.2 19.5 0.7 21 10.9 WSW 15 22 8 12 1010.9 1010.9 0.0
28/07:30pm 24.9 17.6 -0.2 19 11.5 W 28 35 15 19 1010.1 1010.1 0.0
28/07:00pm 25.5 17.7 -0.9 17 12.0 W 30 41 16 22 1009.5 1009.5 0.0
28/06:30pm 26.7 19.3 -1.0 16 12.7 W 28 41 15 22 1008.8 1008.8 0.0
28/06:00pm 27.0 19.5 -1.6 15 13.0 W 28 39 15 21 1008.4 1008.4 0.0
28/05:30pm 27.6 20.0 -1.9 14 13.4 W 28 46 15 25 1008.2 1008.2 0.0
28/05:00pm 27.4 20.1 0.3 17 12.8 WSW 28 39 15 21 1008.0 1008.0 0.0
28/04:30pm 28.0 20.0 -2.7 13 13.8 WSW 30 39 16 21 1008.1 1008.1 0.0
28/04:00pm 28.0 19.1 -2.2 14 13.7 WSW 35 48 19 26 1008.0 1008.0 0.0
28/03:30pm 28.5 20.8 -2.8 13 14.1 W 28 41 15 22 1008.2 1008.2 0.0
28/03:00pm 29.2 20.9 -5.0 10 14.9 W 30 39 16 21 1008.5 1008.5 0.0
28/02:30pm 28.3 20.3 -6.2 10 14.6 W 28 41 15 22 1008.8 1008.8 0.0
28/02:00pm 27.6 22.6 -1.0 15 13.2 NNW 15 24 8 13 1009.2 1009.2 0.0
28/01:30pm 26.2 20.7 -1.8 16 12.6 NW 17 26 9 14 1009.5 1009.5 0.0
28/01:00pm 25.1 21.2 -1.8 17 12.0 WNW 9 13 5 7 1009.9 1009.9 0.0
28/12:30pm 24.2 18.5 -0.9 19 11.3 W 19 28 10 15 1010.5 1010.5 0.0
28/12:00pm 24.7 17.5 -1.9 17 11.8 W 26 37 14 20 1010.7 1010.7 0.0
28/11:30am 24.3 16.4 -1.6 18 11.5 W 30 41 16 22 1011.1 1011.1 0.0
28/11:00am 23.8 17.1 -1.4 18 11.2 WNW 24 35 13 19 1011.2 1011.2 0.0
28/10:30am 23.8 18.5 -0.6 20 11.0 WNW 17 26 9 14 1011.5 1011.5 0.0

Other Formats:

Comma delimited format used in spreadsheet applications
http://www.bom.gov.au/fwo/IDN60801/IDN60801.94767.axf

JavaScript Object Notation format (JSON) in row-major order
http://www.bom.gov.au/fwo/IDN60801/IDN60801.94767.json